Flight Track Log - Related Links

Times and Time Zones

All times are in EDT time to prevent confusion due to time zone crossing. See the TGW274 flight status page for this flight to view local times or setup timezone preferences in your user account.

Time Position Orientation Groundspeed Altitude Reporting Facility
EDT Latitude Longitude Course Direction KTS MPH feet Rate Location/Type
Fri 11:58:34 PM -33.9380 151.1780 255° West 9 10  Level FlightAware ADS-B
Fri 11:59:19 PM -33.9410 151.1780 180° South 15 17 77 Level FlightAware ADS-B
Fri 11:59:49 PM -33.9430 151.1790 157° South 18 21 87 Level FlightAware ADS-B
Sat 12:00:09 AM -33.9450 151.1790 180° South 12 14 95 Level FlightAware ADS-B
Sat 12:01:25 AM -33.9500 151.1800 171° South 21 24 102 Level FlightAware ADS-B
Sat 12:01:40 AM -33.9510 151.1800 180° South 12 14 137 Level FlightAware ADS-B
Sat 12:01:55 AM -33.9510 151.1810 90° East 15 17 147 Level FlightAware ADS-B
Sat 12:02:15 AM -33.9510 151.1830 90° East 19 22 159 Level FlightAware ADS-B
Sat 12:02:35 AM -33.9500 151.1860 68° East 19 22 178 Level FlightAware ADS-B
Sat 12:03:56 AM -33.9500 151.1880 90° East 8 9 201 Level FlightAware ADS-B
Sat 12:05:04 AM -33.9690 151.1930 168° South 141 162 500 1,102 Climbing FlightAware ADS-B
Sat 12:05:34 AM -33.9840 151.2070 142° Southeast 154 177 1,800 2,237 Climbing FlightAware ADS-B
Sat 12:06:03 AM -33.9970 151.2360 118° Southeast 192 221 2,700 1,932 Climbing FlightAware ADS-B
Sat 12:06:33 AM -34.0200 151.2590 140° Southeast 235 270 3,700 1,800 Climbing FlightAware ADS-B
Sat 12:07:03 AM -34.0470 151.2830 144° Southeast 245 282 4,500 1,650 Climbing FlightAware ADS-B
Sat 12:07:13 AM -34.0560 151.2920 140° Southeast 250 288 4,800 2,133 Climbing FlightAware ADS-B
Sat 12:07:48 AM -34.0870 151.3230 140° Southeast 245 282 6,100 2,800 Climbing FlightAware ADS-B
Sat 12:08:13 AM -34.1090 151.3450 140° Southeast 256 295 7,600 3,491 Climbing FlightAware ADS-B
Sat 12:08:43 AM -34.1370 151.3710 142° Southeast 267 307 9,300 3,491 Climbing FlightAware ADS-B
Sat 12:09:08 AM -34.1560 151.4040 125° Southeast 294 338 10,800 2,182 Climbing FlightAware ADS-B
Sat 12:09:49 AM -34.1450 151.4760 80° East 373 429 11,700 2,000 Climbing FlightAware ADS-B
Sat 12:10:08 AM -34.1160 151.5010 36° Northeast 382 440 12,800 3,051 Climbing FlightAware ADS-B
Sat 12:10:48 AM -34.0490 151.5190 13° North 391 450 14,700 2,658 Climbing FlightAware ADS-B
Sat 12:11:27 AM -33.9810 151.5360 12° North 400 460 16,300 2,651 Climbing FlightAware ADS-B
Sat 12:12:14 AM -33.8880 151.5660 15° North 420 483 18,500 2,897 Climbing FlightAware ADS-B
Sat 12:12:54 AM -33.8150 151.5910 16° North 416 479 20,500 2,763 Climbing FlightAware ADS-B
Sat 12:13:30 AM -33.7490 151.6130 15° North 419 482 22,000 2,222 Climbing FlightAware ADS-B
Sat 12:14:15 AM -33.6640 151.6420 16° North 430 495 23,500 1,933 Climbing FlightAware ADS-B
Sat 12:15:00 AM -33.5750 151.6720 16° North 435 501 24,900 1,575 Climbing FlightAware ADS-B
Sat 12:15:35 AM -33.5120 151.6930 16° North 453 521 25,600 1,800 Climbing FlightAware ADS-B
Sat 12:16:20 AM -33.4200 151.7240 16° North 453 521 27,300 2,333 Climbing FlightAware ADS-B
Sat 12:17:05 AM -33.3250 151.7560 16° North 439 505 29,100 2,400 Climbing FlightAware ADS-B
Sat 12:17:45 AM -33.2490 151.7980 25° Northeast 436 502 30,700 1,407 Climbing FlightAware ADS-B
Sat 12:18:26 AM -33.1770 151.8410 27° Northeast 435 501 31,000 212 Climbing FlightAware ADS-B
Sat 12:19:10 AM -33.0970 151.8890 27° Northeast 432 497 31,000  Level FlightAware ADS-B
Sat 12:19:55 AM -33.0140 151.9380 26° Northeast 432 497 31,000 61 Level FlightAware ADS-B
Sat 12:20:48 AM -32.9200 151.9950 27° Northeast 446 513 31,100 65 Climbing FlightAware ADS-B
Sat 12:21:28 AM -32.8430 152.0410 27° Northeast 445 512 31,100 -71 Level FlightAware ADS-B
Sat 12:22:13 AM -32.7610 152.0900 27° Northeast 445 512 31,000 -51 Descending FlightAware ADS-B
Sat 12:23:25 AM -32.6280 152.1690 27° Northeast 435 501 31,000  Level FlightAware ADS-B
Sat 12:24:00 AM -32.5660 152.2060 27° Northeast 434 499 31,000  Level FlightAware ADS-B
Sat 12:24:45 AM -32.4810 152.2560 26° Northeast 437 503 31,000  Level FlightAware ADS-B
Sat 12:25:25 AM -32.4080 152.2990 26° Northeast 445 512 31,000  Level FlightAware ADS-B
Sat 12:26:10 AM -32.3230 152.3490 26° Northeast 447 514 31,000  Level FlightAware ADS-B
Sat 12:26:50 AM -32.2550 152.3890 26° Northeast 447 514 31,000  Level FlightAware ADS-B
Sat 12:27:35 AM -32.1760 152.4360 27° Northeast 448 516 31,000  Level FlightAware ADS-B
Sat 12:28:13 AM -32.1030 152.4780 26° Northeast 446 513 31,000 -444 Level FlightAware ADS-B
Sat 12:28:56 AM -32.0200 152.5270 27° Northeast 447 514 30,400 -1,129 Descending FlightAware ADS-B
Sat 12:29:38 AM -31.9410 152.5730 26° Northeast 446 513 29,400 -1,765 Descending FlightAware ADS-B
Sat 12:30:38 AM -31.8350 152.6350 26° Northeast 438 504 27,400 -1,918 Descending FlightAware ADS-B
Sat 12:31:15 AM -31.7730 152.6710 26° Northeast 434 499 26,300 -1,976 Descending FlightAware ADS-B
Sat 12:32:03 AM -31.6830 152.7230 26° Northeast 427 491 24,600 -2,093 Descending FlightAware ADS-B
Sat 12:32:41 AM -31.6150 152.7620 26° Northeast 421 484 23,300 -1,026 Descending FlightAware ADS-B
Sat 12:33:19 AM -31.5580 152.7950 26° Northeast 421 484 23,300  Level FlightAware ADS-B
Sat 12:34:08 AM -31.4850 152.8370 26° Northeast 421 484 23,300  Level FlightAware ADS-B
Sat 12:34:44 AM -31.4320 152.8670 26° Northeast 421 484 23,300  Level FlightAware ADS-B
Sat 12:35:48 AM -31.3360 152.9220 26° Northeast 421 484 23,300  Level FlightAware ADS-B
Sat 12:36:25 AM -31.2810 152.9530 26° Northeast 421 484 23,300  Level FlightAware ADS-B
Sat 12:39:00 AM -30.8422 153.0281 North  Level Estimated
Sat 12:40:00 AM -30.6723 153.0569 North  Level Estimated
Sat 12:41:00 AM -30.5024 153.0857 North  Level Estimated

Login

Don't have an account? Register now (free) for customized features, flight alerts, and more!